CPX712 Details

Departure: Tokyo-Narita International Airport (RJAA)
Arrival: Incheon International Airport (RKSI) at N/A
Route: SOUKA Y16 SAPRA Y685 SEL SEL1T
Notes:


Current Weather Information
RJAA 250430Z 11006KT 090V170 9999 FEW035 29/20 Q1009 NOSIG RMK 2CU035 A2980
RKSI 250430Z 30008KT 260V330 9999 FEW020 27/16 Q1013 NOSIG